sensor_id;sensor_type;location;lat;lon;timestamp;pressure;altitude;pressure_sealevel;temperature;humidity
29383;BME280;16365;51.598;7.668;2023-07-20T00:02:05;100689.94;;;23.82;48.04
29383;BME280;16365;51.598;7.668;2023-07-20T00:04:33;100687.91;;;23.82;48.05
29383;BME280;16365;51.598;7.668;2023-07-20T00:07:00;100692.34;;;23.83;47.98
29383;BME280;16365;51.598;7.668;2023-07-20T00:09:29;100691.13;;;23.84;47.94
29383;BME280;16365;51.598;7.668;2023-07-20T00:11:56;100687.06;;;23.85;47.91
29383;BME280;16365;51.598;7.668;2023-07-20T00:14:23;100677.78;;;23.85;47.80
29383;BME280;16365;51.598;7.668;2023-07-20T00:16:50;100685.03;;;23.86;47.61
29383;BME280;16365;51.598;7.668;2023-07-20T00:19:23;100676.56;;;23.86;47.72
29383;BME280;16365;51.598;7.668;2023-07-20T00:21:50;100684.63;;;23.88;47.88
29383;BME280;16365;51.598;7.668;2023-07-20T00:24:16;100686.66;;;23.87;47.77
29383;BME280;16365;51.598;7.668;2023-07-20T00:26:44;100683.00;;;23.87;47.69
29383;BME280;16365;51.598;7.668;2023-07-20T00:29:10;100672.09;;;23.89;47.66
29383;BME280;16365;51.598;7.668;2023-07-20T00:31:37;100676.13;;;23.88;47.53
29383;BME280;16365;51.598;7.668;2023-07-20T00:34:04;100680.97;;;23.87;47.74
29383;BME280;16365;51.598;7.668;2023-07-20T00:36:30;100676.13;;;23.88;47.76
29383;BME280;16365;51.598;7.668;2023-07-20T00:38:57;100678.16;;;23.87;47.68
29383;BME280;16365;51.598;7.668;2023-07-20T00:41:23;100673.72;;;23.86;47.70
29383;BME280;16365;51.598;7.668;2023-07-20T00:43:50;100680.19;;;23.87;47.62
29383;BME280;16365;51.598;7.668;2023-07-20T00:46:17;100666.44;;;23.85;47.67
29383;BME280;16365;51.598;7.668;2023-07-20T00:48:43;100672.13;;;23.85;47.71
29383;BME280;16365;51.598;7.668;2023-07-20T00:51:10;100677.78;;;23.85;47.84
29383;BME280;16365;51.598;7.668;2023-07-20T00:53:37;100672.13;;;23.85;47.88
29383;BME280;16365;51.598;7.668;2023-07-20T00:56:06;100672.91;;;23.85;48.00
29383;BME280;16365;51.598;7.668;2023-07-20T00:58:35;100672.91;;;23.85;47.77
29383;BME280;16365;51.598;7.668;2023-07-20T01:01:02;100671.69;;;23.87;47.82
29383;BME280;16365;51.598;7.668;2023-07-20T01:03:29;100671.25;;;23.88;47.77
29383;BME280;16365;51.598;7.668;2023-07-20T01:06:04;100667.25;;;23.85;48.33
29383;BME280;16365;51.598;7.668;2023-07-20T01:11:38;100664.44;;;23.85;48.21
29383;BME280;16365;51.598;7.668;2023-07-20T01:14:05;100667.22;;;23.89;47.81
29383;BME280;16365;51.598;7.668;2023-07-20T01:16:32;100668.44;;;23.88;47.76
29383;BME280;16365;51.598;7.668;2023-07-20T01:18:59;100658.34;;;23.87;47.74
29383;BME280;16365;51.598;7.668;2023-07-20T01:21:31;100662.03;;;23.84;47.98
29383;BME280;16365;51.598;7.668;2023-07-20T01:32:04;100662.41;;;23.86;47.65
29383;BME280;16365;51.598;7.668;2023-07-20T01:34:34;100657.97;;;23.85;47.85
29383;BME280;16365;51.598;7.668;2023-07-20T01:37:02;100659.56;;;23.86;47.64
29383;BME280;16365;51.598;7.668;2023-07-20T01:39:30;100664.44;;;23.85;47.95
29383;BME280;16365;51.598;7.668;2023-07-20T01:41:57;100657.97;;;23.85;47.91
29383;BME280;16365;51.598;7.668;2023-07-20T01:44:24;100657.16;;;23.84;47.83
29383;BME280;16365;51.598;7.668;2023-07-20T01:46:51;100654.72;;;23.83;48.13
29383;BME280;16365;51.598;7.668;2023-07-20T01:49:18;100659.59;;;23.82;48.23
29383;BME280;16365;51.598;7.668;2023-07-20T01:51:44;100653.94;;;23.82;48.08
29383;BME280;16365;51.598;7.668;2023-07-20T01:54:11;100649.50;;;23.81;47.79
29383;BME280;16365;51.598;7.668;2023-07-20T01:56:39;100657.63;;;23.79;48.05
29383;BME280;16365;51.598;7.668;2023-07-20T01:59:05;100657.63;;;23.79;47.85
29383;BME280;16365;51.598;7.668;2023-07-20T02:01:32;100655.19;;;23.78;47.97
29383;BME280;16365;51.598;7.668;2023-07-20T02:03:58;100659.25;;;23.77;48.06
29383;BME280;16365;51.598;7.668;2023-07-20T02:06:25;100645.53;;;23.75;48.03
29383;BME280;16365;51.598;7.668;2023-07-20T02:08:51;100648.75;;;23.74;47.98
29383;BME280;16365;51.598;7.668;2023-07-20T02:11:19;100644.31;;;23.73;48.12
29383;BME280;16365;51.598;7.668;2023-07-20T02:13:45;100643.53;;;23.72;48.23
29383;BME280;16365;51.598;7.668;2023-07-20T02:16:12;100653.25;;;23.71;48.17
29383;BME280;16365;51.598;7.668;2023-07-20T02:18:38;100637.50;;;23.70;48.17
29383;BME280;16365;51.598;7.668;2023-07-20T02:21:05;100651.25;;;23.68;48.28
29383;BME280;16365;51.598;7.668;2023-07-20T02:23:32;100640.34;;;23.67;48.35
29383;BME280;16365;51.598;7.668;2023-07-20T02:26:00;100635.47;;;23.67;48.21
29383;BME280;16365;51.598;7.668;2023-07-20T02:28:27;100643.97;;;23.67;48.36
29383;BME280;16365;51.598;7.668;2023-07-20T02:30:53;100638.75;;;23.66;48.33
29383;BME280;16365;51.598;7.668;2023-07-20T02:33:20;100635.91;;;23.66;48.12
29383;BME280;16365;51.598;7.668;2023-07-20T02:35:47;100643.59;;;23.65;48.04
29383;BME280;16365;51.598;7.668;2023-07-20T02:38:14;100638.75;;;23.66;48.07
29383;BME280;16365;51.598;7.668;2023-07-20T02:40:41;100648.47;;;23.65;48.24
29383;BME280;16365;51.598;7.668;2023-07-20T02:43:08;100651.66;;;23.63;48.29
29383;BME280;16365;51.598;7.668;2023-07-20T02:45:40;100648.03;;;23.63;48.77
29383;BME280;16365;51.598;7.668;2023-07-20T02:48:07;100651.31;;;23.65;48.48
29383;BME280;16365;51.598;7.668;2023-07-20T02:50:34;100653.69;;;23.63;48.59
29383;BME280;16365;51.598;7.668;2023-07-20T02:53:02;100654.13;;;23.61;48.47
29383;BME280;16365;51.598;7.668;2023-07-20T02:55:28;100649.28;;;23.58;48.52
29383;BME280;16365;51.598;7.668;2023-07-20T02:57:55;100658.63;;;23.55;48.78
29383;BME280;16365;51.598;7.668;2023-07-20T03:00:22;100657.84;;;23.51;48.69
29383;BME280;16365;51.598;7.668;2023-07-20T03:02:50;100659.13;;;23.46;48.93
29383;BME280;16365;51.598;7.668;2023-07-20T03:05:24;100668.06;;;23.41;49.46
29383;BME280;16365;51.598;7.668;2023-07-20T03:07:51;100654.72;;;23.38;49.09
29383;BME280;16365;51.598;7.668;2023-07-20T03:10:18;100668.06;;;23.38;49.13
29383;BME280;16365;51.598;7.668;2023-07-20T03:12:45;100665.25;;;23.34;49.11
29383;BME280;16365;51.598;7.668;2023-07-20T03:15:11;100664.88;;;23.32;49.31
29383;BME280;16365;51.598;7.668;2023-07-20T03:17:38;100664.13;;;23.28;49.35
29383;BME280;16365;51.598;7.668;2023-07-20T03:20:05;100670.59;;;23.25;49.45
29383;BME280;16365;51.598;7.668;2023-07-20T03:22:35;100666.97;;;23.21;49.41
29383;BME280;16365;51.598;7.668;2023-07-20T03:25:02;100675.50;;;23.17;49.48
29383;BME280;16365;51.598;7.668;2023-07-20T03:27:29;100676.75;;;23.13;49.58
29383;BME280;16365;51.598;7.668;2023-07-20T03:29:55;100677.56;;;23.09;49.59
29383;BME280;16365;51.598;7.668;2023-07-20T03:32:22;100676.78;;;23.05;50.05
29383;BME280;16365;51.598;7.668;2023-07-20T03:34:48;100682.06;;;23.03;49.99
29383;BME280;16365;51.598;7.668;2023-07-20T03:37:15;100683.69;;;23.01;49.99
29383;BME280;16365;51.598;7.668;2023-07-20T03:39:42;100686.13;;;22.99;49.55
29383;BME280;16365;51.598;7.668;2023-07-20T03:42:09;100692.22;;;22.94;49.13
29383;BME280;16365;51.598;7.668;2023-07-20T03:44:36;100699.91;;;22.86;49.01
29383;BME280;16365;51.598;7.668;2023-07-20T03:47:03;100686.25;;;22.77;49.00
29383;BME280;16365;51.598;7.668;2023-07-20T03:49:31;100681.44;;;22.67;48.93
29383;BME280;16365;51.598;7.668;2023-07-20T03:51:57;100686.75;;;22.58;49.28
29383;BME280;16365;51.598;7.668;2023-07-20T03:54:24;100695.66;;;22.49;49.33
29383;BME280;16365;51.598;7.668;2023-07-20T03:56:50;100684.78;;;22.41;49.59
29383;BME280;16365;51.598;7.668;2023-07-20T03:59:17;100675.94;;;22.35;50.03
29383;BME280;16365;51.598;7.668;2023-07-20T04:01:43;100688.47;;;22.30;50.13
29383;BME280;16365;51.598;7.668;2023-07-20T04:04:10;100699.34;;;22.28;50.09
29383;BME280;16365;51.598;7.668;2023-07-20T04:06:37;100690.50;;;22.26;50.24
29383;BME280;16365;51.598;7.668;2023-07-20T04:09:05;100690.91;;;22.25;50.30
29383;BME280;16365;51.598;7.668;2023-07-20T04:11:32;100693.75;;;22.25;49.98
29383;BME280;16365;51.598;7.668;2023-07-20T04:13:59;100682.88;;;22.20;50.02
29383;BME280;16365;51.598;7.668;2023-07-20T04:16:25;100700.22;;;22.15;50.48
29383;BME280;16365;51.598;7.668;2023-07-20T04:18:57;100696.56;;;22.11;51.11
29383;BME280;16365;51.598;7.668;2023-07-20T04:21:27;100693.34;;;22.08;51.24
29383;BME280;16365;51.598;7.668;2023-07-20T04:23:55;100696.16;;;22.08;51.09
29383;BME280;16365;51.598;7.668;2023-07-20T04:26:21;100700.59;;;22.10;51.25
29383;BME280;16365;51.598;7.668;2023-07-20T04:28:48;100699.78;;;22.09;51.60
29383;BME280;16365;51.598;7.668;2023-07-20T04:31:17;100696.19;;;22.12;51.64
29383;BME280;16365;51.598;7.668;2023-07-20T04:33:44;100696.56;;;22.14;51.58
29383;BME280;16365;51.598;7.668;2023-07-20T04:36:11;100693.38;;;22.16;51.60
29383;BME280;16365;51.598;7.668;2023-07-20T04:38:37;100706.25;;;22.20;51.80
29383;BME280;16365;51.598;7.668;2023-07-20T04:41:04;100705.84;;;22.22;51.85
29383;BME280;16365;51.598;7.668;2023-07-20T04:43:30;100717.53;;;22.24;51.95
29383;BME280;16365;51.598;7.668;2023-07-20T04:45:57;100706.66;;;22.26;51.92
29383;BME280;16365;51.598;7.668;2023-07-20T04:48:25;100717.94;;;22.29;51.79
29383;BME280;16365;51.598;7.668;2023-07-20T04:50:53;100709.03;;;22.31;51.94
29383;BME280;16365;51.598;7.668;2023-07-20T04:53:19;100717.09;;;22.32;52.05
29383;BME280;16365;51.598;7.668;2023-07-20T04:55:48;100724.34;;;22.33;52.28
29383;BME280;16365;51.598;7.668;2023-07-20T04:58:19;100719.13;;;22.36;52.30
29383;BME280;16365;51.598;7.668;2023-07-20T05:00:48;100723.97;;;22.39;52.76
29383;BME280;16365;51.598;7.668;2023-07-20T05:03:17;100721.53;;;22.44;52.38
29383;BME280;16365;51.598;7.668;2023-07-20T05:05:46;100724.31;;;22.48;52.43
29383;BME280;16365;51.598;7.668;2023-07-20T05:08:15;100724.31;;;22.51;52.20
29383;BME280;16365;51.598;7.668;2023-07-20T05:10:42;100729.94;;;22.55;52.11
29383;BME280;16365;51.598;7.668;2023-07-20T05:13:09;100730.75;;;22.59;51.90
29383;BME280;16365;51.598;7.668;2023-07-20T05:15:36;100725.06;;;22.63;52.04
29383;BME280;16365;51.598;7.668;2023-07-20T05:18:02;100727.88;;;22.66;51.95
29383;BME280;16365;51.598;7.668;2023-07-20T05:20:29;100722.59;;;22.72;52.04
29383;BME280;16365;51.598;7.668;2023-07-20T05:22:59;100728.25;;;22.75;51.85
29383;BME280;16365;51.598;7.668;2023-07-20T05:25:25;100729.84;;;22.80;52.13
29383;BME280;16365;51.598;7.668;2023-07-20T05:27:56;100737.50;;;22.83;51.69
29383;BME280;16365;51.598;7.668;2023-07-20T05:30:23;100741.13;;;22.87;52.00
29383;BME280;16365;51.598;7.668;2023-07-20T05:32:53;100737.88;;;22.92;51.81
29383;BME280;16365;51.598;7.668;2023-07-20T05:35:21;100735.44;;;22.98;51.77
29383;BME280;16365;51.598;7.668;2023-07-20T05:37:50;100737.41;;;23.01;51.51
29383;BME280;16365;51.598;7.668;2023-07-20T05:40:16;100735.38;;;23.05;51.69
29383;BME280;16365;51.598;7.668;2023-07-20T05:42:48;100746.25;;;23.10;51.66
29383;BME280;16365;51.598;7.668;2023-07-20T05:45:16;100747.84;;;23.15;51.37
29383;BME280;16365;51.598;7.668;2023-07-20T05:47:42;100743.41;;;23.17;51.21
29383;BME280;16365;51.598;7.668;2023-07-20T05:50:10;100756.69;;;23.20;50.99
29383;BME280;16365;51.598;7.668;2023-07-20T05:52:36;100753.06;;;23.23;51.07
29383;BME280;16365;51.598;7.668;2023-07-20T05:55:06;100760.31;;;23.24;51.11
29383;BME280;16365;51.598;7.668;2023-07-20T05:57:33;100760.72;;;23.26;50.98
29383;BME280;16365;51.598;7.668;2023-07-20T06:00:00;100773.63;;;23.31;51.06
29383;BME280;16365;51.598;7.668;2023-07-20T06:02:27;100765.50;;;23.33;50.95
29383;BME280;16365;51.598;7.668;2023-07-20T06:04:55;100771.97;;;23.37;50.94
29383;BME280;16365;51.598;7.668;2023-07-20T06:07:21;100768.28;;;23.40;50.86
29383;BME280;16365;51.598;7.668;2023-07-20T06:09:48;100772.31;;;23.43;50.84
29383;BME280;16365;51.598;7.668;2023-07-20T06:12:14;100775.53;;;23.45;50.47
29383;BME280;16365;51.598;7.668;2023-07-20T06:14:42;100783.63;;;23.46;50.34
29383;BME280;16365;51.598;7.668;2023-07-20T06:17:09;100781.59;;;23.47;49.76
29383;BME280;16365;51.598;7.668;2023-07-20T06:19:35;100792.50;;;23.48;49.89
29383;BME280;16365;51.598;7.668;2023-07-20T06:22:02;100791.25;;;23.49;49.83
29383;BME280;16365;51.598;7.668;2023-07-20T06:24:29;100790.47;;;23.49;49.91
29383;BME280;16365;51.598;7.668;2023-07-20T06:26:55;100789.28;;;23.50;50.19
29383;BME280;16365;51.598;7.668;2023-07-20T06:29:23;100799.38;;;23.51;49.94
29383;BME280;16365;51.598;7.668;2023-07-20T06:31:49;100796.09;;;23.56;49.96
29383;BME280;16365;51.598;7.668;2023-07-20T06:34:16;100802.13;;;23.58;50.08
29383;BME280;16365;51.598;7.668;2023-07-20T06:36:43;100804.50;;;23.63;50.01
29383;BME280;16365;51.598;7.668;2023-07-20T06:39:10;100798.84;;;23.70;49.84
29383;BME280;16365;51.598;7.668;2023-07-20T06:41:40;100797.19;;;23.73;49.80
29383;BME280;16365;51.598;7.668;2023-07-20T06:44:08;100798.38;;;23.79;50.09
29383;BME280;16365;51.598;7.668;2023-07-20T06:46:35;100795.50;;;23.82;49.78
29383;BME280;16365;51.598;7.668;2023-07-20T06:49:02;100791.84;;;23.85;49.76
29383;BME280;16365;51.598;7.668;2023-07-20T06:51:31;100790.97;;;23.92;49.40
29383;BME280;16365;51.598;7.668;2023-07-20T06:53:59;100792.56;;;23.97;49.11
29383;BME280;16365;51.598;7.668;2023-07-20T06:56:26;100788.03;;;24.03;49.11
29383;BME280;16365;51.598;7.668;2023-07-20T06:58:54;100800.94;;;24.07;48.99
29383;BME280;16365;51.598;7.668;2023-07-20T07:01:21;100800.91;;;24.15;48.60
29383;BME280;16365;51.598;7.668;2023-07-20T07:03:49;100800.06;;;24.18;48.35
29383;BME280;16365;51.598;7.668;2023-07-20T07:06:20;100795.16;;;24.22;48.33
29383;BME280;16365;51.598;7.668;2023-07-20T07:08:49;100802.00;;;24.24;48.44
29383;BME280;16365;51.598;7.668;2023-07-20T07:11:16;100797.97;;;24.22;48.09
29383;BME280;16365;51.598;7.668;2023-07-20T07:13:43;100797.19;;;24.21;47.91
29383;BME280;16365;51.598;7.668;2023-07-20T07:16:09;100805.69;;;24.21;47.76
29383;BME280;16365;51.598;7.668;2023-07-20T07:18:35;100807.72;;;24.21;47.86
29383;BME280;16365;51.598;7.668;2023-07-20T07:21:05;100812.13;;;24.25;47.48
29383;BME280;16365;51.598;7.668;2023-07-20T07:23:32;100810.06;;;24.29;47.15
29383;BME280;16365;51.598;7.668;2023-07-20T07:25:58;100808.81;;;24.34;47.06
29383;BME280;16365;51.598;7.668;2023-07-20T07:28:25;100806.34;;;24.40;47.12
29383;BME280;16365;51.598;7.668;2023-07-20T07:30:51;100811.13;;;24.46;47.00
29383;BME280;16365;51.598;7.668;2023-07-20T07:33:18;100815.13;;;24.52;46.96
29383;BME280;16365;51.598;7.668;2023-07-20T07:35:45;100823.56;;;24.56;46.89
29383;BME280;16365;51.598;7.668;2023-07-20T07:38:11;100827.22;;;24.56;46.39
29383;BME280;16365;51.598;7.668;2023-07-20T07:40:59;100826.84;;;24.54;46.18
29383;BME280;16365;51.598;7.668;2023-07-20T07:43:27;100835.00;;;24.49;46.30
29383;BME280;16365;51.598;7.668;2023-07-20T07:45:54;100833.06;;;24.42;46.10
29383;BME280;16365;51.598;7.668;2023-07-20T07:48:21;100837.53;;;24.36;46.15
29383;BME280;16365;51.598;7.668;2023-07-20T07:50:48;100842.84;;;24.30;46.39
29383;BME280;16365;51.598;7.668;2023-07-20T07:53:16;100837.19;;;24.27;46.32
29383;BME280;16365;51.598;7.668;2023-07-20T07:55:43;100842.13;;;24.23;46.83
29383;BME280;16365;51.598;7.668;2023-07-20T07:58:09;100843.31;;;24.22;47.23
29383;BME280;16365;51.598;7.668;2023-07-20T08:00:36;100842.91;;;24.23;47.69
29383;BME280;16365;51.598;7.668;2023-07-20T08:03:02;100850.16;;;24.28;47.25
29383;BME280;16365;51.598;7.668;2023-07-20T08:05:29;100848.06;;;24.32;47.16
29383;BME280;16365;51.598;7.668;2023-07-20T08:07:56;100851.72;;;24.36;47.10
29383;BME280;16365;51.598;7.668;2023-07-20T08:10:22;100846.38;;;24.45;48.72
29383;BME280;16365;51.598;7.668;2023-07-20T08:12:49;100849.78;;;24.67;49.49
29383;BME280;16365;51.598;7.668;2023-07-20T08:15:16;100844.13;;;25.01;49.16
29383;BME280;16365;51.598;7.668;2023-07-20T08:17:42;100848.00;;;25.49;49.20
29383;BME280;16365;51.598;7.668;2023-07-20T08:20:13;100849.16;;;26.05;48.92
29383;BME280;16365;51.598;7.668;2023-07-20T08:22:39;100846.50;;;26.65;48.47
29383;BME280;16365;51.598;7.668;2023-07-20T08:25:06;100844.03;;;27.27;46.31
29383;BME280;16365;51.598;7.668;2023-07-20T08:27:33;100852.81;;;27.88;45.06
29383;BME280;16365;51.598;7.668;2023-07-20T08:30:00;100843.72;;;28.42;44.48
29383;BME280;16365;51.598;7.668;2023-07-20T08:32:27;100851.28;;;28.94;43.05
29383;BME280;16365;51.598;7.668;2023-07-20T08:34:55;100856.44;;;29.41;41.71
29383;BME280;16365;51.598;7.668;2023-07-20T08:37:22;100852.13;;;29.88;41.90
29383;BME280;16365;51.598;7.668;2023-07-20T08:39:48;100854.03;;;30.29;40.73
29383;BME280;16365;51.598;7.668;2023-07-20T08:42:16;100848.69;;;30.66;39.46
29383;BME280;16365;51.598;7.668;2023-07-20T08:44:44;100846.09;;;31.03;38.45
29383;BME280;16365;51.598;7.668;2023-07-20T08:47:12;100852.56;;;31.38;37.85
29383;BME280;16365;51.598;7.668;2023-07-20T08:49:40;100856.34;;;31.66;36.04
29383;BME280;16365;51.598;7.668;2023-07-20T08:52:07;100854.75;;;31.87;36.85
29383;BME280;16365;51.598;7.668;2023-07-20T08:54:35;100863.38;;;32.05;36.45
29383;BME280;16365;51.598;7.668;2023-07-20T08:57:04;100863.13;;;32.21;35.36
29383;BME280;16365;51.598;7.668;2023-07-20T08:59:32;100857.72;;;32.33;33.69
29383;BME280;16365;51.598;7.668;2023-07-20T09:02:02;100857.41;;;32.31;33.01
29383;BME280;16365;51.598;7.668;2023-07-20T09:04:31;100851.47;;;32.25;33.37
29383;BME280;16365;51.598;7.668;2023-07-20T09:06:58;100855.13;;;32.16;33.85
29383;BME280;16365;51.598;7.668;2023-07-20T09:09:24;100860.38;;;32.09;32.49
29383;BME280;16365;51.598;7.668;2023-07-20T09:11:51;100856.66;;;31.99;32.12
29383;BME280;16365;51.598;7.668;2023-07-20T09:14:17;100851.88;;;31.87;31.69
29383;BME280;16365;51.598;7.668;2023-07-20T09:16:55;100858.78;;;31.67;31.20
29383;BME280;16365;51.598;7.668;2023-07-20T09:19:22;100851.69;;;31.50;32.10
29383;BME280;16365;51.598;7.668;2023-07-20T09:21:50;100851.16;;;31.20;31.64
29383;BME280;16365;51.598;7.668;2023-07-20T09:24:18;100857.28;;;30.88;31.46
29383;BME280;16365;51.598;7.668;2023-07-20T09:26:47;100859.84;;;30.51;31.59
29383;BME280;16365;51.598;7.668;2023-07-20T09:29:18;100869.03;;;30.20;32.66
29383;BME280;16365;51.598;7.668;2023-07-20T09:32:02;100865.84;;;29.93;33.49
29383;BME280;16365;51.598;7.668;2023-07-20T09:34:30;100863.91;;;29.77;32.99
29383;BME280;16365;51.598;7.668;2023-07-20T09:37:02;100871.66;;;29.64;32.92
29383;BME280;16365;51.598;7.668;2023-07-20T09:39:29;100858.50;;;29.54;32.68
29383;BME280;16365;51.598;7.668;2023-07-20T09:42:00;100859.63;;;29.43;31.94
29383;BME280;16365;51.598;7.668;2023-07-20T09:44:34;100865.81;;;29.42;32.39
29383;BME280;16365;51.598;7.668;2023-07-20T09:47:04;100856.53;;;29.38;32.77
29383;BME280;16365;51.598;7.668;2023-07-20T09:49:31;100851.28;;;29.36;32.83
29383;BME280;16365;51.598;7.668;2023-07-20T09:52:18;100855.41;;;29.35;32.71
29383;BME280;16365;51.598;7.668;2023-07-20T09:55:06;100856.31;;;29.32;32.86
29383;BME280;16365;51.598;7.668;2023-07-20T09:57:33;100853.56;;;29.29;32.67
29383;BME280;16365;51.598;7.668;2023-07-20T10:00:04;100860.75;;;29.21;32.01
29383;BME280;16365;51.598;7.668;2023-07-20T10:02:45;100853.75;;;29.09;31.84
29383;BME280;16365;51.598;7.668;2023-07-20T10:05:13;100861.03;;;28.97;32.02
29383;BME280;16365;51.598;7.668;2023-07-20T10:07:46;100858.88;;;28.85;32.63
29383;BME280;16365;51.598;7.668;2023-07-20T10:10:18;100851.44;;;28.75;32.51
29383;BME280;16365;51.598;7.668;2023-07-20T10:12:48;100854.03;;;28.69;31.89
29383;BME280;16365;51.598;7.668;2023-07-20T10:15:30;100846.44;;;28.62;31.94
29383;BME280;16365;51.598;7.668;2023-07-20T10:18:14;100851.03;;;28.60;32.50
29383;BME280;16365;51.598;7.668;2023-07-20T10:20:42;100856.28;;;28.61;32.98
29383;BME280;16365;51.598;7.668;2023-07-20T10:23:13;100854.59;;;28.64;33.04
29383;BME280;16365;51.598;7.668;2023-07-20T10:25:41;100852.06;;;28.66;32.88
29383;BME280;16365;51.598;7.668;2023-07-20T10:28:10;100848.78;;;28.67;32.70
29383;BME280;16365;51.598;7.668;2023-07-20T10:30:37;100856.00;;;28.72;32.62
29383;BME280;16365;51.598;7.668;2023-07-20T10:33:05;100850.63;;;28.74;32.70
29383;BME280;16365;51.598;7.668;2023-07-20T10:38:18;100844.38;;;28.79;32.56
29383;BME280;16365;51.598;7.668;2023-07-20T10:40:55;100846.44;;;28.79;32.41
29383;BME280;16365;51.598;7.668;2023-07-20T10:43:22;100837.31;;;28.84;32.08
29383;BME280;16365;51.598;7.668;2023-07-20T10:45:52;100845.06;;;28.83;31.88
29383;BME280;16365;51.598;7.668;2023-07-20T10:48:22;100842.31;;;28.80;31.59
29383;BME280;16365;51.598;7.668;2023-07-20T10:51:12;100833.84;;;28.76;31.56
29383;BME280;16365;51.598;7.668;2023-07-20T10:53:44;100832.94;;;28.79;31.06
29383;BME280;16365;51.598;7.668;2023-07-20T10:56:13;100835.56;;;28.74;30.67
29383;BME280;16365;51.598;7.668;2023-07-20T10:58:41;100832.81;;;28.70;31.39
29383;BME280;16365;51.598;7.668;2023-07-20T11:01:17;100831.28;;;28.65;30.57
29383;BME280;16365;51.598;7.668;2023-07-20T11:03:48;100833.44;;;28.61;30.05
29383;BME280;16365;51.598;7.668;2023-07-20T11:11:27;100834.44;;;28.55;30.61
29383;BME280;16365;51.598;7.668;2023-07-20T11:14:01;100834.09;;;28.53;30.74
29383;BME280;16365;51.598;7.668;2023-07-20T11:16:43;100831.69;;;28.51;31.00
29383;BME280;16365;51.598;7.668;2023-07-20T11:19:16;100823.03;;;28.55;30.28
29383;BME280;16365;51.598;7.668;2023-07-20T11:21:50;100827.50;;;28.56;30.10
29383;BME280;16365;51.598;7.668;2023-07-20T11:24:28;100828.28;;;28.56;30.68
29383;BME280;16365;51.598;7.668;2023-07-20T11:26:54;100825.44;;;28.56;30.36
29383;BME280;16365;51.598;7.668;2023-07-20T11:29:22;100827.03;;;28.57;29.72
29383;BME280;16365;51.598;7.668;2023-07-20T11:31:58;100817.25;;;28.58;30.29
29383;BME280;16365;51.598;7.668;2023-07-20T11:34:25;100820.09;;;28.58;30.20
29383;BME280;16365;51.598;7.668;2023-07-20T11:36:53;100815.53;;;28.61;30.03
29383;BME280;16365;51.598;7.668;2023-07-20T11:39:23;100817.13;;;28.62;30.01
29383;BME280;16365;51.598;7.668;2023-07-20T11:41:54;100815.06;;;28.62;29.62
29383;BME280;16365;51.598;7.668;2023-07-20T11:44:26;100809.81;;;28.61;29.87
29383;BME280;16365;51.598;7.668;2023-07-20T11:47:11;100803.78;;;28.59;30.35
29383;BME280;16365;51.598;7.668;2023-07-20T11:49:40;100808.56;;;28.62;30.17
29383;BME280;16365;51.598;7.668;2023-07-20T11:52:08;100813.94;;;28.60;30.21
29383;BME280;16365;51.598;7.668;2023-07-20T11:54:35;100811.88;;;28.60;31.60
29383;BME280;16365;51.598;7.668;2023-07-20T11:57:04;100805.28;;;28.63;30.24
29383;BME280;16365;51.598;7.668;2023-07-20T11:59:32;100804.91;;;28.61;30.66
29383;BME280;16365;51.598;7.668;2023-07-20T12:02:01;100804.22;;;28.57;29.91
29383;BME280;16365;51.598;7.668;2023-07-20T12:04:31;100806.72;;;28.55;29.75
29383;BME280;16365;51.598;7.668;2023-07-20T12:06:57;100807.53;;;28.56;30.05
29383;BME280;16365;51.598;7.668;2023-07-20T12:09:24;100784.78;;;28.52;29.58
29383;BME280;16365;51.598;7.668;2023-07-20T12:12:09;100796.66;;;28.51;28.94
29383;BME280;16365;51.598;7.668;2023-07-20T12:14:38;100794.16;;;28.53;29.53
29383;BME280;16365;51.598;7.668;2023-07-20T12:17:08;100793.34;;;28.52;28.84
29383;BME280;16365;51.598;7.668;2023-07-20T12:19:38;100795.78;;;28.54;28.47
29383;BME280;16365;51.598;7.668;2023-07-20T12:22:06;100791.19;;;28.56;29.22
29383;BME280;16365;51.598;7.668;2023-07-20T12:24:34;100784.25;;;28.57;28.67
29383;BME280;16365;51.598;7.668;2023-07-20T12:27:01;100794.75;;;28.60;28.88
29383;BME280;16365;51.598;7.668;2023-07-20T12:29:27;100789.38;;;28.62;28.87
29383;BME280;16365;51.598;7.668;2023-07-20T12:31:54;100787.69;;;28.65;28.34
29383;BME280;16365;51.598;7.668;2023-07-20T12:34:21;100786.81;;;28.68;28.38
29383;BME280;16365;51.598;7.668;2023-07-20T12:36:47;100785.88;;;28.71;27.82
29383;BME280;16365;51.598;7.668;2023-07-20T12:39:14;100784.28;;;28.70;28.45
29383;BME280;16365;51.598;7.668;2023-07-20T12:41:40;100781.09;;;28.68;28.13
29383;BME280;16365;51.598;7.668;2023-07-20T12:44:07;100787.59;;;28.68;28.45
29383;BME280;16365;51.598;7.668;2023-07-20T12:46:33;100777.44;;;28.67;27.84
29383;BME280;16365;51.598;7.668;2023-07-20T12:49:04;100772.09;;;28.69;28.34
29383;BME280;16365;51.598;7.668;2023-07-20T12:51:31;100774.47;;;28.71;28.35
29383;BME280;16365;51.598;7.668;2023-07-20T12:53:57;100779.75;;;28.73;28.48
29383;BME280;16365;51.598;7.668;2023-07-20T12:56:23;100765.34;;;28.76;28.15
29383;BME280;16365;51.598;7.668;2023-07-20T12:58:53;100766.50;;;28.79;28.12
29383;BME280;16365;51.598;7.668;2023-07-20T13:01:19;100768.13;;;28.80;28.44
29383;BME280;16365;51.598;7.668;2023-07-20T13:03:46;100768.00;;;28.83;27.95
29383;BME280;16365;51.598;7.668;2023-07-20T13:06:15;100761.84;;;28.85;27.98
29383;BME280;16365;51.598;7.668;2023-07-20T13:08:45;100768.34;;;28.85;27.50
29383;BME280;16365;51.598;7.668;2023-07-20T13:11:11;100764.69;;;28.85;27.53
29383;BME280;16365;51.598;7.668;2023-07-20T13:13:38;100766.28;;;28.86;27.59
29383;BME280;16365;51.598;7.668;2023-07-20T13:16:04;100758.09;;;28.88;27.70